sensor_id;sensor_type;location;lat;lon;timestamp;pressure;altitude;pressure_sealevel;temperature;humidity
14612;BME280;7392;52.078;11.650;2023-02-23T00:01:24;100510.09;;;5.59;100.00
14612;BME280;7392;52.078;11.650;2023-02-23T00:03:55;100503.00;;;5.56;100.00
14612;BME280;7392;52.078;11.650;2023-02-23T00:06:24;100506.53;;;5.55;100.00
14612;BME280;7392;52.078;11.650;2023-02-23T00:08:53;100502.09;;;5.54;100.00
14612;BME280;7392;52.078;11.650;2023-02-23T00:11:21;100497.69;;;5.53;100.00
14612;BME280;7392;52.078;11.650;2023-02-23T00:13:50;100499.44;;;5.53;100.00
14612;BME280;7392;52.078;11.650;2023-02-23T00:16:19;100510.88;;;5.52;100.00
14612;BME280;7392;52.078;11.650;2023-02-23T00:18:48;100494.09;;;5.48;100.00
14612;BME280;7392;52.078;11.650;2023-02-23T00:21:19;100499.38;;;5.48;100.00
14612;BME280;7392;52.078;11.650;2023-02-23T00:23:49;100503.75;;;5.48;100.00
14612;BME280;7392;52.078;11.650;2023-02-23T00:26:17;100493.19;;;5.46;100.00
14612;BME280;7392;52.078;11.650;2023-02-23T00:28:47;100492.31;;;5.44;100.00
14612;BME280;7392;52.078;11.650;2023-02-23T00:31:16;100488.75;;;5.42;100.00
14612;BME280;7392;52.078;11.650;2023-02-23T00:33:44;100490.50;;;5.40;100.00
14612;BME280;7392;52.078;11.650;2023-02-23T00:36:13;100490.44;;;5.37;100.00
14612;BME280;7392;52.078;11.650;2023-02-23T00:38:43;100489.56;;;5.36;100.00
14612;BME280;7392;52.078;11.650;2023-02-23T00:41:13;100486.91;;;5.35;100.00
14612;BME280;7392;52.078;11.650;2023-02-23T00:43:43;100487.75;;;5.34;100.00
14612;BME280;7392;52.078;11.650;2023-02-23T00:46:13;100480.69;;;5.30;100.00
14612;BME280;7392;52.078;11.650;2023-02-23T00:48:43;100480.66;;;5.28;100.00
14612;BME280;7392;52.078;11.650;2023-02-23T00:51:11;100482.41;;;5.26;100.00
14612;BME280;7392;52.078;11.650;2023-02-23T00:53:40;100477.94;;;5.23;100.00
14612;BME280;7392;52.078;11.650;2023-02-23T00:56:11;100470.88;;;5.21;100.00
14612;BME280;7392;52.078;11.650;2023-02-23T00:58:39;100476.16;;;5.19;100.00
14612;BME280;7392;52.078;11.650;2023-02-23T01:01:07;100475.19;;;5.16;100.00
14612;BME280;7392;52.078;11.650;2023-02-23T01:03:36;100469.91;;;5.13;100.00
14612;BME280;7392;52.078;11.650;2023-02-23T01:06:06;100471.63;;;5.12;100.00
14612;BME280;7392;52.078;11.650;2023-02-23T01:08:36;100473.34;;;5.10;100.00
14612;BME280;7392;52.078;11.650;2023-02-23T01:11:06;100479.47;;;5.08;100.00
14612;BME280;7392;52.078;11.650;2023-02-23T01:13:37;100470.66;;;5.07;100.00
14612;BME280;7392;52.078;11.650;2023-02-23T01:16:05;100466.25;;;5.04;100.00
14612;BME280;7392;52.078;11.650;2023-02-23T01:18:34;100474.16;;;5.04;100.00
14612;BME280;7392;52.078;11.650;2023-02-23T01:21:03;100466.22;;;5.03;100.00
14612;BME280;7392;52.078;11.650;2023-02-23T01:23:31;100470.63;;;5.02;100.00
14612;BME280;7392;52.078;11.650;2023-02-23T01:25:59;100474.13;;;5.03;100.00
14612;BME280;7392;52.078;11.650;2023-02-23T01:28:26;100475.88;;;5.02;100.00
14612;BME280;7392;52.078;11.650;2023-02-23T01:30:55;100465.31;;;5.01;100.00
14612;BME280;7392;52.078;11.650;2023-02-23T01:33:23;100468.78;;;5.00;100.00
14612;BME280;7392;52.078;11.650;2023-02-23T01:35:58;100467.03;;;4.99;100.00
14612;BME280;7392;52.078;11.650;2023-02-23T01:38:25;100476.66;;;4.98;100.00
14612;BME280;7392;52.078;11.650;2023-02-23T01:40:53;100462.59;;;4.96;100.00
14612;BME280;7392;52.078;11.650;2023-02-23T01:43:21;100467.84;;;4.95;100.00
14612;BME280;7392;52.078;11.650;2023-02-23T01:45:53;100464.31;;;4.93;100.00
14612;BME280;7392;52.078;11.650;2023-02-23T01:48:26;100468.69;;;4.92;100.00
14612;BME280;7392;52.078;11.650;2023-02-23T01:51:00;100465.16;;;4.92;100.00
14612;BME280;7392;52.078;11.650;2023-02-23T01:53:32;100459.00;;;4.91;100.00
14612;BME280;7392;52.078;11.650;2023-02-23T01:56:03;100467.75;;;4.90;100.00
14612;BME280;7392;52.078;11.650;2023-02-23T01:58:38;100469.50;;;4.90;100.00
14612;BME280;7392;52.078;11.650;2023-02-23T02:01:06;100467.75;;;4.89;100.00
14612;BME280;7392;52.078;11.650;2023-02-23T02:03:38;100464.22;;;4.88;100.00
14612;BME280;7392;52.078;11.650;2023-02-23T02:06:10;100466.84;;;4.88;100.00
14612;BME280;7392;52.078;11.650;2023-02-23T02:08:42;100458.94;;;4.86;100.00
14612;BME280;7392;52.078;11.650;2023-02-23T02:11:13;100452.72;;;4.83;100.00
14612;BME280;7392;52.078;11.650;2023-02-23T02:13:58;100457.16;;;4.84;100.00
14612;BME280;7392;52.078;11.650;2023-02-23T02:16:39;100458.00;;;4.83;100.00
14612;BME280;7392;52.078;11.650;2023-02-23T02:22:35;100458.88;;;4.82;100.00
14612;BME280;7392;52.078;11.650;2023-02-23T02:25:35;100462.34;;;4.81;100.00
14612;BME280;7392;52.078;11.650;2023-02-23T02:28:36;100462.31;;;4.79;100.00
14612;BME280;7392;52.078;11.650;2023-02-23T02:31:34;100465.84;;;4.78;100.00
14612;BME280;7392;52.078;11.650;2023-02-23T02:34:21;100462.28;;;4.78;100.00
14612;BME280;7392;52.078;11.650;2023-02-23T02:37:12;100464.06;;;4.79;100.00
14612;BME280;7392;52.078;11.650;2023-02-23T02:39:49;100462.28;;;4.78;100.00
14612;BME280;7392;52.078;11.650;2023-02-23T02:42:50;100457.91;;;4.77;100.00
14612;BME280;7392;52.078;11.650;2023-02-23T02:45:25;100463.13;;;4.75;100.00
14612;BME280;7392;52.078;11.650;2023-02-23T02:47:58;100449.97;;;4.74;100.00
14612;BME280;7392;52.078;11.650;2023-02-23T02:50:36;100448.16;;;4.73;100.00
14612;BME280;7392;52.078;11.650;2023-02-23T02:53:10;100451.72;;;4.73;100.00
14612;BME280;7392;52.078;11.650;2023-02-23T02:55:42;100452.56;;;4.72;100.00
14612;BME280;7392;52.078;11.650;2023-02-23T02:58:14;100451.66;;;4.70;100.00
14612;BME280;7392;52.078;11.650;2023-02-23T03:00:45;100449.88;;;4.69;100.00
14612;BME280;7392;52.078;11.650;2023-02-23T03:03:32;100451.63;;;4.68;100.00
14612;BME280;7392;52.078;11.650;2023-02-23T03:06:21;100449.81;;;4.66;100.00
14612;BME280;7392;52.078;11.650;2023-02-23T03:09:23;100447.16;;;4.63;100.00
14612;BME280;7392;52.078;11.650;2023-02-23T03:12:15;100449.75;;;4.61;100.00
14612;BME280;7392;52.078;11.650;2023-02-23T03:15:16;100447.91;;;4.57;100.00
14612;BME280;7392;52.078;11.650;2023-02-23T03:18:15;100446.13;;;4.55;100.00
14612;BME280;7392;52.078;11.650;2023-02-23T03:21:11;100446.91;;;4.50;100.00
14612;BME280;7392;52.078;11.650;2023-02-23T03:24:06;100444.22;;;4.47;100.00
14612;BME280;7392;52.078;11.650;2023-02-23T03:27:00;100445.94;;;4.45;100.00
14612;BME280;7392;52.078;11.650;2023-02-23T03:29:53;100449.41;;;4.43;100.00
14612;BME280;7392;52.078;11.650;2023-02-23T03:32:45;100436.22;;;4.40;100.00
14612;BME280;7392;52.078;11.650;2023-02-23T03:35:38;100446.66;;;4.37;100.00
14612;BME280;7392;52.078;11.650;2023-02-23T03:38:34;100447.47;;;4.33;100.00
14612;BME280;7392;52.078;11.650;2023-02-23T03:41:22;100447.41;;;4.29;100.00
14612;BME280;7392;52.078;11.650;2023-02-23T03:44:14;100451.75;;;4.26;100.00
14612;BME280;7392;52.078;11.650;2023-02-23T03:47:02;100454.31;;;4.23;100.00
14612;BME280;7392;52.078;11.650;2023-02-23T03:49:50;100446.31;;;4.18;100.00
14612;BME280;7392;52.078;11.650;2023-02-23T03:52:41;100452.41;;;4.16;100.00
14612;BME280;7392;52.078;11.650;2023-02-23T03:55:30;100451.53;;;4.15;100.00
14612;BME280;7392;52.078;11.650;2023-02-23T03:58:21;100440.06;;;4.11;100.00
14612;BME280;7392;52.078;11.650;2023-02-23T04:01:10;100451.41;;;4.09;100.00
14612;BME280;7392;52.078;11.650;2023-02-23T04:03:58;100452.22;;;4.06;100.00
14612;BME280;7392;52.078;11.650;2023-02-23T04:06:45;100453.94;;;4.04;100.00
14612;BME280;7392;52.078;11.650;2023-02-23T04:09:31;100454.81;;;4.03;100.00
14612;BME280;7392;52.078;11.650;2023-02-23T04:12:20;100450.41;;;4.02;100.00
14612;BME280;7392;52.078;11.650;2023-02-23T04:15:11;100459.13;;;4.01;100.00
14612;BME280;7392;52.078;11.650;2023-02-23T04:17:42;100455.63;;;4.01;100.00
14612;BME280;7392;52.078;11.650;2023-02-23T04:20:11;100455.59;;;3.99;100.00
14612;BME280;7392;52.078;11.650;2023-02-23T04:22:39;100460.84;;;3.99;100.00
14612;BME280;7392;52.078;11.650;2023-02-23T04:25:08;100451.22;;;3.98;100.00
14612;BME280;7392;52.078;11.650;2023-02-23T04:27:37;100447.66;;;3.98;100.00
14612;BME280;7392;52.078;11.650;2023-02-23T04:30:06;100456.47;;;3.98;100.00
14612;BME280;7392;52.078;11.650;2023-02-23T04:32:36;100459.06;;;3.97;100.00
14612;BME280;7392;52.078;11.650;2023-02-23T04:35:07;100452.91;;;3.96;100.00
14612;BME280;7392;52.078;11.650;2023-02-23T04:37:34;100449.41;;;3.97;100.00
14612;BME280;7392;52.078;11.650;2023-02-23T04:40:02;100452.94;;;3.98;100.00
14612;BME280;7392;52.078;11.650;2023-02-23T04:42:30;100448.53;;;3.97;100.00
14612;BME280;7392;52.078;11.650;2023-02-23T04:44:58;100447.63;;;3.96;100.00
14612;BME280;7392;52.078;11.650;2023-02-23T04:47:26;100439.75;;;3.96;100.00
14612;BME280;7392;52.078;11.650;2023-02-23T04:49:53;100445.91;;;3.97;100.00
14612;BME280;7392;52.078;11.650;2023-02-23T04:52:23;100445.00;;;3.96;100.00
14612;BME280;7392;52.078;11.650;2023-02-23T04:54:50;100440.63;;;3.95;100.00
14612;BME280;7392;52.078;11.650;2023-02-23T04:57:18;100437.13;;;3.95;100.00
14612;BME280;7392;52.078;11.650;2023-02-23T04:59:46;100440.59;;;3.93;100.00
14612;BME280;7392;52.078;11.650;2023-02-23T05:02:13;100443.22;;;3.93;100.00
14612;BME280;7392;52.078;11.650;2023-02-23T05:04:41;100439.72;;;3.93;100.00
14612;BME280;7392;52.078;11.650;2023-02-23T05:07:10;100447.59;;;3.93;100.00
14612;BME280;7392;52.078;11.650;2023-02-23T05:09:38;100444.94;;;3.91;100.00
14612;BME280;7392;52.078;11.650;2023-02-23T05:12:06;100446.69;;;3.92;100.00
14612;BME280;7392;52.078;11.650;2023-02-23T05:14:34;100445.81;;;3.92;100.00
14612;BME280;7392;52.078;11.650;2023-02-23T05:17:02;100448.41;;;3.90;100.00
14612;BME280;7392;52.078;11.650;2023-02-23T05:19:29;100448.41;;;3.90;100.00
14612;BME280;7392;52.078;11.650;2023-02-23T05:21:57;100444.91;;;3.90;100.00
14612;BME280;7392;52.078;11.650;2023-02-23T05:24:25;100448.41;;;3.90;100.00
14612;BME280;7392;52.078;11.650;2023-02-23T05:26:54;100438.75;;;3.88;100.00
14612;BME280;7392;52.078;11.650;2023-02-23T05:29:21;100446.63;;;3.88;100.00
14612;BME280;7392;52.078;11.650;2023-02-23T05:31:49;100448.34;;;3.87;100.00
14612;BME280;7392;52.078;11.650;2023-02-23T05:34:17;100444.84;;;3.87;100.00
14612;BME280;7392;52.078;11.650;2023-02-23T05:36:44;100443.09;;;3.87;100.00
14612;BME280;7392;52.078;11.650;2023-02-23T05:39:12;100439.59;;;3.87;100.00
14612;BME280;7392;52.078;11.650;2023-02-23T05:41:40;100442.22;;;3.87;100.00
14612;BME280;7392;52.078;11.650;2023-02-23T05:44:09;100440.47;;;3.87;100.00
14612;BME280;7392;52.078;11.650;2023-02-23T05:46:37;100449.22;;;3.86;100.00
14612;BME280;7392;52.078;11.650;2023-02-23T05:49:04;100444.84;;;3.87;100.00
14612;BME280;7392;52.078;11.650;2023-02-23T05:51:33;100448.31;;;3.86;100.00
14612;BME280;7392;52.078;11.650;2023-02-23T05:54:01;100456.16;;;3.84;100.00
14612;BME280;7392;52.078;11.650;2023-02-23T05:56:29;100456.16;;;3.83;100.00
14612;BME280;7392;52.078;11.650;2023-02-23T05:58:57;100462.22;;;3.80;100.00
14612;BME280;7392;52.078;11.650;2023-02-23T06:01:27;100460.47;;;3.81;100.00
14612;BME280;7392;52.078;11.650;2023-02-23T06:03:54;100463.97;;;3.80;100.00
14612;BME280;7392;52.078;11.650;2023-02-23T06:06:23;100458.72;;;3.80;100.00
14612;BME280;7392;52.078;11.650;2023-02-23T06:08:51;100463.06;;;3.78;100.00
14612;BME280;7392;52.078;11.650;2023-02-23T06:11:18;100469.16;;;3.77;100.00
14612;BME280;7392;52.078;11.650;2023-02-23T06:13:47;100466.56;;;3.78;100.00
14612;BME280;7392;52.078;11.650;2023-02-23T06:16:15;100476.19;;;3.79;100.00
14612;BME280;7392;52.078;11.650;2023-02-23T06:18:44;100480.56;;;3.79;100.00
14612;BME280;7392;52.078;11.650;2023-02-23T06:21:12;100474.41;;;3.77;100.00
14612;BME280;7392;52.078;11.650;2023-02-23T06:23:40;100483.16;;;3.77;100.00
14612;BME280;7392;52.078;11.650;2023-02-23T06:26:08;100477.06;;;3.78;100.00
14612;BME280;7392;52.078;11.650;2023-02-23T06:28:36;100471.78;;;3.77;100.00
14612;BME280;7392;52.078;11.650;2023-02-23T06:31:04;100475.34;;;3.80;100.00
14612;BME280;7392;52.078;11.650;2023-02-23T06:33:32;100471.88;;;3.81;100.00
14612;BME280;7392;52.078;11.650;2023-02-23T06:36:01;100471.84;;;3.80;100.00
14612;BME280;7392;52.078;11.650;2023-02-23T06:38:29;100475.38;;;3.82;100.00
14612;BME280;7392;52.078;11.650;2023-02-23T06:40:56;100477.22;;;3.86;100.00
14612;BME280;7392;52.078;11.650;2023-02-23T06:43:24;100489.53;;;3.88;100.00
14612;BME280;7392;52.078;11.650;2023-02-23T06:45:52;100483.41;;;3.89;100.00
14612;BME280;7392;52.078;11.650;2023-02-23T06:48:19;100483.47;;;3.92;100.00
14612;BME280;7392;52.078;11.650;2023-02-23T06:50:47;100491.41;;;3.94;100.00
14612;BME280;7392;52.078;11.650;2023-02-23T06:53:16;100492.31;;;3.96;100.00
14612;BME280;7392;52.078;11.650;2023-02-23T06:55:45;100500.25;;;3.99;100.00
14612;BME280;7392;52.078;11.650;2023-02-23T06:58:13;100509.06;;;4.00;100.00
14612;BME280;7392;52.078;11.650;2023-02-23T07:00:40;100507.31;;;4.00;100.00
14612;BME280;7392;52.078;11.650;2023-02-23T07:03:09;100508.19;;;4.01;100.00
14612;BME280;7392;52.078;11.650;2023-02-23T07:05:37;100510.81;;;4.01;100.00
14612;BME280;7392;52.078;11.650;2023-02-23T07:08:04;100515.22;;;4.02;100.00
14612;BME280;7392;52.078;11.650;2023-02-23T07:10:33;100509.97;;;4.02;100.00
14612;BME280;7392;52.078;11.650;2023-02-23T07:13:01;100517.91;;;4.03;100.00
14612;BME280;7392;52.078;11.650;2023-02-23T07:15:29;100516.19;;;4.05;100.00
14612;BME280;7392;52.078;11.650;2023-02-23T07:17:56;100516.25;;;4.08;100.00
14612;BME280;7392;52.078;11.650;2023-02-23T07:20:24;100518.91;;;4.11;100.00
14612;BME280;7392;52.078;11.650;2023-02-23T07:22:52;100529.50;;;4.15;100.00
14612;BME280;7392;52.078;11.650;2023-02-23T07:25:20;100526.94;;;4.18;100.00
14612;BME280;7392;52.078;11.650;2023-02-23T07:27:49;100530.50;;;4.21;100.00
14612;BME280;7392;52.078;11.650;2023-02-23T07:30:17;100533.22;;;4.24;100.00
14612;BME280;7392;52.078;11.650;2023-02-23T07:32:45;100536.75;;;4.26;100.00
14612;BME280;7392;52.078;11.650;2023-02-23T07:35:12;100537.66;;;4.28;100.00
14612;BME280;7392;52.078;11.650;2023-02-23T07:37:40;100535.97;;;4.32;100.00
14612;BME280;7392;52.078;11.650;2023-02-23T07:40:09;100535.16;;;4.35;100.00
14612;BME280;7392;52.078;11.650;2023-02-23T07:42:37;100539.63;;;4.39;100.00
14612;BME280;7392;52.078;11.650;2023-02-23T07:45:07;100535.34;;;4.44;100.00
14612;BME280;7392;52.078;11.650;2023-02-23T07:47:35;100539.84;;;4.49;100.00
14612;BME280;7392;52.078;11.650;2023-02-23T07:50:06;100541.66;;;4.54;100.00
14612;BME280;7392;52.078;11.650;2023-02-23T07:52:36;100541.75;;;4.58;100.00
14612;BME280;7392;52.078;11.650;2023-02-23T07:55:05;100542.75;;;4.63;100.00
14612;BME280;7392;52.078;11.650;2023-02-23T07:57:35;100540.19;;;4.68;100.00
14612;BME280;7392;52.078;11.650;2023-02-23T08:00:03;100540.25;;;4.73;100.00
14612;BME280;7392;52.078;11.650;2023-02-23T08:02:39;100541.19;;;4.76;100.00
14612;BME280;7392;52.078;11.650;2023-02-23T08:05:07;100539.50;;;4.80;100.00
14612;BME280;7392;52.078;11.650;2023-02-23T08:07:35;100539.59;;;4.84;100.00
14612;BME280;7392;52.078;11.650;2023-02-23T08:10:03;100535.31;;;4.90;100.00
14612;BME280;7392;52.078;11.650;2023-02-23T08:12:31;100545.03;;;4.94;100.00
14612;BME280;7392;52.078;11.650;2023-02-23T08:15:00;100536.38;;;4.99;100.00
14612;BME280;7392;52.078;11.650;2023-02-23T08:17:28;100546.13;;;5.06;100.00
14612;BME280;7392;52.078;11.650;2023-02-23T08:19:57;100537.44;;;5.12;100.00
14612;BME280;7392;52.078;11.650;2023-02-23T08:22:25;100548.09;;;5.18;100.00
14612;BME280;7392;52.078;11.650;2023-02-23T08:24:54;100544.69;;;5.25;100.00
14612;BME280;7392;52.078;11.650;2023-02-23T08:27:22;100549.19;;;5.33;100.00
14612;BME280;7392;52.078;11.650;2023-02-23T08:29:54;100546.66;;;5.39;100.00
14612;BME280;7392;52.078;11.650;2023-02-23T08:32:22;100548.50;;;5.44;100.00
14612;BME280;7392;52.078;11.650;2023-02-23T08:34:49;100546.00;;;5.52;100.00
14612;BME280;7392;52.078;11.650;2023-02-23T08:37:18;100548.72;;;5.60;100.00
14612;BME280;7392;52.078;11.650;2023-02-23T08:39:46;100546.19;;;5.66;100.00
14612;BME280;7392;52.078;11.650;2023-02-23T08:42:13;100543.66;;;5.74;100.00
14612;BME280;7392;52.078;11.650;2023-02-23T08:44:41;100540.28;;;5.83;100.00
14612;BME280;7392;52.078;11.650;2023-02-23T08:47:09;100542.16;;;5.91;100.00
14612;BME280;7392;52.078;11.650;2023-02-23T08:49:36;100546.72;;;6.00;100.00
14612;BME280;7392;52.078;11.650;2023-02-23T08:52:04;100534.53;;;6.08;100.00
14612;BME280;7392;52.078;11.650;2023-02-23T08:54:33;100543.41;;;6.18;100.00
14612;BME280;7392;52.078;11.650;2023-02-23T08:57:00;100543.53;;;6.27;100.00
14612;BME280;7392;52.078;11.650;2023-02-23T08:59:28;100545.41;;;6.36;100.00
14612;BME280;7392;52.078;11.650;2023-02-23T09:01:58;100540.25;;;6.47;100.00
14612;BME280;7392;52.078;11.650;2023-02-23T09:04:26;100544.72;;;6.55;100.00
14612;BME280;7392;52.078;11.650;2023-02-23T09:06:53;100543.09;;;6.65;100.00
14612;BME280;7392;52.078;11.650;2023-02-23T09:09:21;100541.44;;;6.75;100.00
14612;BME280;7392;52.078;11.650;2023-02-23T09:11:50;100538.91;;;6.86;100.00
14612;BME280;7392;52.078;11.650;2023-02-23T09:14:18;100542.50;;;6.96;100.00
14612;BME280;7392;52.078;11.650;2023-02-23T09:16:46;100546.09;;;7.05;100.00
14612;BME280;7392;52.078;11.650;2023-02-23T09:19:14;100551.47;;;7.13;100.00
14612;BME280;7392;52.078;11.650;2023-02-23T09:21:42;100548.03;;;7.22;100.00
14612;BME280;7392;52.078;11.650;2023-02-23T09:24:10;100548.97;;;7.30;100.00
14612;BME280;7392;52.078;11.650;2023-02-23T09:26:38;100551.66;;;7.39;100.00
14612;BME280;7392;52.078;11.650;2023-02-23T09:29:11;100548.22;;;7.46;100.00
14612;BME280;7392;52.078;11.650;2023-02-23T09:31:39;100557.09;;;7.56;100.00
14612;BME280;7392;52.078;11.650;2023-02-23T09:34:09;100555.41;;;7.66;100.00
14612;BME280;7392;52.078;11.650;2023-02-23T09:36:38;100554.56;;;7.73;100.00
14612;BME280;7392;52.078;11.650;2023-02-23T09:39:05;100560.81;;;7.83;100.00
14612;BME280;7392;52.078;11.650;2023-02-23T09:41:52;100560.84;;;7.94;100.00
14612;BME280;7392;52.078;11.650;2023-02-23T09:44:36;100555.66;;;8.04;100.00
14612;BME280;7392;52.078;11.650;2023-02-23T09:47:19;100564.47;;;8.13;100.00
14612;BME280;7392;52.078;11.650;2023-02-23T09:49:53;100556.59;;;8.22;100.00
14612;BME280;7392;52.078;11.650;2023-02-23T09:52:25;100565.47;;;8.29;100.00
14612;BME280;7392;52.078;11.650;2023-02-23T09:54:54;100561.94;;;8.36;100.00
14612;BME280;7392;52.078;11.650;2023-02-23T09:57:24;100569.91;;;8.40;100.00
14612;BME280;7392;52.078;11.650;2023-02-23T09:59:57;100571.75;;;8.48;100.00
14612;BME280;7392;52.078;11.650;2023-02-23T10:02:29;100564.72;;;8.54;100.00
14612;BME280;7392;52.078;11.650;2023-02-23T10:05:01;100577.09;;;8.63;100.00
14612;BME280;7392;52.078;11.650;2023-02-23T10:07:38;100573.56;;;8.69;100.00
14612;BME280;7392;52.078;11.650;2023-02-23T10:10:18;100575.34;;;8.76;100.00
14612;BME280;7392;52.078;11.650;2023-02-23T10:12:55;100573.59;;;8.84;100.00
14612;BME280;7392;52.078;11.650;2023-02-23T10:15:33;100578.03;;;8.91;100.00
14612;BME280;7392;52.078;11.650;2023-02-23T10:18:11;100584.22;;;8.99;100.00
14612;BME280;7392;52.078;11.650;2023-02-23T10:20:49;100586.88;;;9.04;100.00
14612;BME280;7392;52.078;11.650;2023-02-23T10:23:23;100583.34;;;9.08;100.00
14612;BME280;7392;52.078;11.650;2023-02-23T10:25:58;100589.53;;;9.13;100.00
14612;BME280;7392;52.078;11.650;2023-02-23T10:28:33;100584.25;;;9.18;100.00
14612;BME280;7392;52.078;11.650;2023-02-23T10:31:03;100585.13;;;9.18;100.00
14612;BME280;7392;52.078;11.650;2023-02-23T10:33:37;100587.78;;;9.23;100.00
14612;BME280;7392;52.078;11.650;2023-02-23T10:36:12;100581.63;;;9.24;100.00
14612;BME280;7392;52.078;11.650;2023-02-23T10:38:41;100578.06;;;9.27;100.00
14612;BME280;7392;52.078;11.650;2023-02-23T10:41:10;100581.59;;;9.30;100.00
14612;BME280;7392;52.078;11.650;2023-02-23T10:43:40;100578.97;;;9.36;100.00
14612;BME280;7392;52.078;11.650;2023-02-23T10:46:18;100581.59;;;9.43;100.00
14612;BME280;7392;52.078;11.650;2023-02-23T10:48:48;100581.59;;;9.46;100.00
14612;BME280;7392;52.078;11.650;2023-02-23T10:51:22;100589.56;;;9.50;100.00
14612;BME280;7392;52.078;11.650;2023-02-23T10:53:51;100585.13;;;9.52;100.00
14612;BME280;7392;52.078;11.650;2023-02-23T10:56:20;100587.78;;;9.51;100.00
14612;BME280;7392;52.078;11.650;2023-02-23T10:58:50;100586.91;;;9.50;100.00
14612;BME280;7392;52.078;11.650;2023-02-23T11:01:33;100587.78;;;9.48;100.00
14612;BME280;7392;52.078;11.650;2023-02-23T11:04:16;100586.91;;;9.49;100.00
14612;BME280;7392;52.078;11.650;2023-02-23T11:06:45;100584.25;;;9.47;100.00
14612;BME280;7392;52.078;11.650;2023-02-23T11:09:23;100586.91;;;9.50;100.00
14612;BME280;7392;52.078;11.650;2023-02-23T11:12:18;100582.50;;;9.54;100.00
14612;BME280;7392;52.078;11.650;2023-02-23T11:14:48;100579.84;;;9.59;100.00
14612;BME280;7392;52.078;11.650;2023-02-23T11:17:28;100588.66;;;9.58;100.00
14612;BME280;7392;52.078;11.650;2023-02-23T11:19:59;100583.38;;;9.59;100.00
14612;BME280;7392;52.078;11.650;2023-02-23T11:22:31;100580.72;;;9.61;100.00
14612;BME280;7392;52.078;11.650;2023-02-23T11:25:00;100576.28;;;9.64;100.00
14612;BME280;7392;52.078;11.650;2023-02-23T11:27:29;100580.69;;;9.68;100.00
14612;BME280;7392;52.078;11.650;2023-02-23T11:29:57;100579.84;;;9.72;100.00
14612;BME280;7392;52.078;11.650;2023-02-23T11:32:30;100575.41;;;9.74;100.00
14612;BME280;7392;52.078;11.650;2023-02-23T11:35:24;100568.31;;;9.78;100.00
14612;BME280;7392;52.078;11.650;2023-02-23T11:37:54;100574.50;;;9.79;100.00
14612;BME280;7392;52.078;11.650;2023-02-23T11:40:25;100566.53;;;9.82;100.00
14612;BME280;7392;52.078;11.650;2023-02-23T11:42:54;100566.53;;;9.83;100.00
14612;BME280;7392;52.078;11.650;2023-02-23T11:45:23;100562.13;;;9.82;100.00
14612;BME280;7392;52.078;11.650;2023-02-23T11:47:55;100563.88;;;9.83;100.00
14612;BME280;7392;52.078;11.650;2023-02-23T11:50:27;100561.22;;;9.85;100.00
14612;BME280;7392;52.078;11.650;2023-02-23T11:53:00;100567.41;;;9.85;100.00
14612;BME280;7392;52.078;11.650;2023-02-23T11:55:30;100547.97;;;9.83;100.00
14612;BME280;7392;52.078;11.650;2023-02-23T11:58:10;100563.88;;;9.86;100.00
14612;BME280;7392;52.078;11.650;2023-02-23T12:00:40;100559.47;;;9.88;100.00
14612;BME280;7392;52.078;11.650;2023-02-23T12:03:16;100560.38;;;9.87;100.00
14612;BME280;7392;52.078;11.650;2023-02-23T12:05:49;100559.47;;;9.87;100.00
14612;BME280;7392;52.078;11.650;2023-02-23T12:08:25;100560.38;;;9.86;100.00
14612;BME280;7392;52.078;11.650;2023-02-23T12:10:58;100557.72;;;9.86;100.00
14612;BME280;7392;52.078;11.650;2023-02-23T12:13:31;100552.41;;;9.81;100.00
14612;BME280;7392;52.078;11.650;2023-02-23T12:16:06;100555.94;;;9.82;100.00
14612;BME280;7392;52.078;11.650;2023-02-23T12:18:43;100548.84;;;9.84;100.00
14612;BME280;7392;52.078;11.650;2023-02-23T12:21:22;100542.66;;;9.83;100.00
14612;BME280;7392;52.078;11.650;2023-02-23T12:23:54;100548.84;;;9.85;100.00
14612;BME280;7392;52.078;11.650;2023-02-23T12:26:24;100553.28;;;9.89;100.00
14612;BME280;7392;52.078;11.650;2023-02-23T12:28:56;100542.66;;;9.92;100.00
14612;BME280;7392;52.078;11.650;2023-02-23T12:31:35;100543.53;;;9.95;100.00
14612;BME280;7392;52.078;11.650;2023-02-23T12:34:12;100541.75;;;9.95;100.00
14612;BME280;7392;52.078;11.650;2023-02-23T12:36:47;100537.31;;;9.96;100.00
14612;BME280;7392;52.078;11.650;2023-02-23T12:39:23;100541.75;;;9.98;100.00
14612;BME280;7392;52.078;11.650;2023-02-23T12:41:58;100542.63;;;9.97;100.00
14612;BME280;7392;52.078;11.650;2023-02-23T12:44:34;100537.31;;;9.96;100.00
14612;BME280;7392;52.078;11.650;2023-02-23T12:47:08;100545.31;;;9.94;100.00
14612;BME280;7392;52.078;11.650;2023-02-23T12:49:44;100539.09;;;9.93;100.00
14612;BME280;7392;52.078;11.650;2023-02-23T12:52:16;100530.28;;;9.93;100.00
14612;BME280;7392;52.078;11.650;2023-02-23T12:54:46;100537.31;;;9.97;100.00
14612;BME280;7392;52.078;11.650;2023-02-23T12:57:22;100533.78;;;10.01;100.00
14612;BME280;7392;52.078;11.650;2023-02-23T13:00:06;100527.56;;;10.05;100.00
14612;BME280;7392;52.078;11.650;2023-02-23T13:03:15;100527.56;;;10.07;100.00
14612;BME280;7392;52.078;11.650;2023-02-23T13:05:50;100533.78;;;10.04;100.00
14612;BME280;7392;52.078;11.650;2023-02-23T13:08:25;100526.69;;;10.06;100.00
14612;BME280;7392;52.078;11.650;2023-02-23T13:11:01;100516.06;;;10.09;100.00
14612;BME280;7392;52.078;11.650;2023-02-23T13:13:39;100532.00;;;10.08;100.00
14612;BME280;7392;52.078;11.650;2023-02-23T13:16:18;100529.34;;;10.06;100.00
14612;BME280;7392;52.078;11.650;2023-02-23T13:18:58;100517.84;;;10.06;100.00
14612;BME280;7392;52.078;11.650;2023-02-23T13:21:33;100523.13;;;10.07;100.00
14612;BME280;7392;52.078;11.650;2023-02-23T13:24:05;100517.81;;;10.09;100.00